Geneva Queen — V7YZ8 — position and weather

sailwx.info

Track history (hours):
 
Tides and Currents Weather Stations Pressure Air Temp Water Temp Dewpoint Dewpoint Depression Visibility Wind Speed Wind Dir Waves Ship Positions

Geneva Queen

Last reported at 2018-Feb-10 07:43 UTC. Time now 2018-Feb-18 00:00 UTC.
Position N 30°54' E 032°19'.

Length 229 m; draft 12.7 m.

Type: Cargo ship. MMSI: 538004774.

Date/timePositionNaut miles runAvg speedWind from/ knotsBaromVisibWave heightAir tempDewpointWater temp
2018-Feb-10 07:43N 30°54' E 032°19'2 7.8
2018-Feb-10 07:25N 30°57' E 032°19'3 7.5
2018-Feb-10 07:01N 30°60' E 032°19'4 8.9
2018-Feb-10 06:30N 31°04' E 032°19'4 8.6
2018-Feb-10 06:00N 31°08' E 032°19'4 6.9
2018-Feb-10 05:25N 31°12' E 032°20'2 5.6
2018-Feb-10 05:01N 31°14' E 032°21'4 8.8
2018-Feb-10 04:30N 31°19' E 032°22'4 7.2
2018-Feb-10 04:00N 31°22' E 032°23'3 5.7
2018-Feb-10 03:31N 31°23' E 032°20'1 1.3
2018-Feb-10 02:59N 31°23' E 032°19'0 0.1
2018-Feb-10 02:29N 31°23' E 032°19'0 0.1
2018-Feb-10 01:50N 31°23' E 032°19'0 0.0
2018-Feb-10 00:02N 31°23' E 032°19'14 1.9
2018-Feb-09 17:01N 31°34' E 032°10'8813.5
2018-Feb-09 10:30N 32°24' E 030°45'714.3
2018-Feb-09 10:00N 32°25' E 030°37'  
2018-Feb-07 01:33N 35°13' E 016°06'113.3
2018-Feb-07 01:27N 35°13' E 016°04'613.3
2018-Feb-07 01:00N 35°15' E 015°57'713.1
2018-Feb-07 00:29N 35°16' E 015°49'612.9
2018-Feb-07 00:00N 35°18' E 015°42'713.1
2018-Feb-06 23:29N 35°20' E 015°34'612.9
2018-Feb-06 23:00N 35°21' E 015°26'612.9
2018-Feb-06 22:30N 35°23' E 015°19'713.1
2018-Feb-06 22:00N 35°25' E 015°11'713.2
2018-Feb-06 21:30N 35°26' E 015°03'713.3
2018-Feb-06 20:59N 35°28' E 014°55'1913.3
2018-Feb-06 19:35N 35°33' E 014°33'113.0
2018-Feb-06 19:30N 35°33' E 014°32'612.8
2018-Feb-06 19:00N 35°35' E 014°24'713.0
2018-Feb-06 18:28N 35°37' E 014°16'612.9
2018-Feb-06 18:00N 35°41' E 014°10'713.4
2018-Feb-06 17:30N 35°45' E 014°04'713.2
2018-Feb-06 17:00N 35°50' E 013°58'612.8
2018-Feb-06 16:30N 35°54' E 013°52'612.6
2018-Feb-06 16:00N 35°57' E 013°46'36312.6
2018-Feb-05 11:08N 37°26' E 006°27'213.9
2018-Feb-05 11:00N 37°26' E 006°24'813.9
2018-Feb-05 10:27N 37°25' E 006°15'614.2
2018-Feb-05 10:00N 37°26' E 006°07'1414.4
2018-Feb-05 09:00N 37°26' E 005°49'714.5
2018-Feb-05 08:30N 37°25' E 005°40'53013.5
2018-Feb-03 17:21N 36°00' W 005°13'515.7
2018-Feb-03 17:00N 35°59' W 005°19'2014.2
2018-Feb-03 15:37N 35°54' W 005°43'111.4
2018-Feb-03 15:30N 35°54' W 005°44'23611.5
2018-Feb-02 18:57N 38°00' W 009°55'613.0
2018-Feb-02 18:30N 38°06' W 009°56'1413.1
2018-Feb-02 17:25N 38°20' W 009°60'513.0
2018-Feb-02 17:00N 38°25' W 010°01'612.9
2018-Feb-02 16:30N 38°31' W 010°03'1312.9
2018-Feb-02 15:30N 38°44' W 010°06'1212.5
2018-Feb-02 14:30N 38°57' W 010°06'612.2
2018-Feb-02 14:00N 39°03' W 010°05'612.6
2018-Feb-02 13:31N 39°09' W 010°05'612.6
2018-Feb-02 13:00N 39°15' W 010°06'712.8
2018-Feb-02 12:28N 39°22' W 010°06'  
Track history (hours):
 
Tides and Currents Weather Stations Pressure Air Temp Water Temp Dewpoint Dewpoint Depression Visibility Wind Speed Wind Dir Waves Ship Positions

Geneva Queen

Last reported at 2018-Feb-10 07:43 UTC. Time now 2018-Feb-18 00:00 UTC.
Position N 30°54' E 032°19'.

Length 229 m; draft 12.7 m.

Type: Cargo ship. MMSI: 538004774.

Date/timePositionNaut miles runAvg speedWind from/ knotsBaromVisibWave heightAir tempDewpointWater temp
2018-Feb-10 07:43N 30°54' E 032°19'2 7.8
2018-Feb-10 07:25N 30°57' E 032°19'3 7.5
2018-Feb-10 07:01N 30°60' E 032°19'4 8.9
2018-Feb-10 06:30N 31°04' E 032°19'4 8.6
2018-Feb-10 06:00N 31°08' E 032°19'4 6.9
2018-Feb-10 05:25N 31°12' E 032°20'2 5.6
2018-Feb-10 05:01N 31°14' E 032°21'4 8.8
2018-Feb-10 04:30N 31°19' E 032°22'4 7.2
2018-Feb-10 04:00N 31°22' E 032°23'3 5.7
2018-Feb-10 03:31N 31°23' E 032°20'1 1.3
2018-Feb-10 02:59N 31°23' E 032°19'0 0.1
2018-Feb-10 02:29N 31°23' E 032°19'0 0.1
2018-Feb-10 01:50N 31°23' E 032°19'0 0.0
2018-Feb-10 00:02N 31°23' E 032°19'14 1.9
2018-Feb-09 17:01N 31°34' E 032°10'8813.5
2018-Feb-09 10:30N 32°24' E 030°45'714.3
2018-Feb-09 10:00N 32°25' E 030°37'  
2018-Feb-07 01:33N 35°13' E 016°06'113.3
2018-Feb-07 01:27N 35°13' E 016°04'613.3
2018-Feb-07 01:00N 35°15' E 015°57'713.1
2018-Feb-07 00:29N 35°16' E 015°49'612.9
2018-Feb-07 00:00N 35°18' E 015°42'713.1
2018-Feb-06 23:29N 35°20' E 015°34'612.9
2018-Feb-06 23:00N 35°21' E 015°26'612.9
2018-Feb-06 22:30N 35°23' E 015°19'713.1
2018-Feb-06 22:00N 35°25' E 015°11'713.2
2018-Feb-06 21:30N 35°26' E 015°03'713.3
2018-Feb-06 20:59N 35°28' E 014°55'1913.3
2018-Feb-06 19:35N 35°33' E 014°33'113.0
2018-Feb-06 19:30N 35°33' E 014°32'612.8
2018-Feb-06 19:00N 35°35' E 014°24'713.0
2018-Feb-06 18:28N 35°37' E 014°16'612.9
2018-Feb-06 18:00N 35°41' E 014°10'713.4
2018-Feb-06 17:30N 35°45' E 014°04'713.2
2018-Feb-06 17:00N 35°50' E 013°58'612.8
2018-Feb-06 16:30N 35°54' E 013°52'612.6
2018-Feb-06 16:00N 35°57' E 013°46'36312.6
2018-Feb-05 11:08N 37°26' E 006°27'213.9
2018-Feb-05 11:00N 37°26' E 006°24'813.9
2018-Feb-05 10:27N 37°25' E 006°15'614.2
2018-Feb-05 10:00N 37°26' E 006°07'1414.4
2018-Feb-05 09:00N 37°26' E 005°49'714.5
2018-Feb-05 08:30N 37°25' E 005°40'53013.5
2018-Feb-03 17:21N 36°00' W 005°13'515.7
2018-Feb-03 17:00N 35°59' W 005°19'2014.2
2018-Feb-03 15:37N 35°54' W 005°43'111.4
2018-Feb-03 15:30N 35°54' W 005°44'23611.5
2018-Feb-02 18:57N 38°00' W 009°55'613.0
2018-Feb-02 18:30N 38°06' W 009°56'1413.1
2018-Feb-02 17:25N 38°20' W 009°60'513.0
2018-Feb-02 17:00N 38°25' W 010°01'612.9
2018-Feb-02 16:30N 38°31' W 010°03'1312.9
2018-Feb-02 15:30N 38°44' W 010°06'1212.5
2018-Feb-02 14:30N 38°57' W 010°06'612.2
2018-Feb-02 14:00N 39°03' W 010°05'612.6
2018-Feb-02 13:31N 39°09' W 010°05'612.6
2018-Feb-02 13:00N 39°15' W 010°06'712.8
2018-Feb-02 12:28N 39°22' W 010°06'  

Dump ship's entire track history